sensor_id;sensor_type;location;lat;lon;timestamp;pressure;altitude;pressure_sealevel;temperature;humidity
6028;BME280;3042;43.194;27.646;2023-04-21T00:00:07;101117.03;;;18.53;100.00
6028;BME280;3042;43.194;27.646;2023-04-21T00:02:35;101092.50;;;18.47;100.00
6028;BME280;3042;43.194;27.646;2023-04-21T00:05:05;100970.19;;;17.83;100.00
6028;BME280;3042;43.194;27.646;2023-04-21T00:07:34;101112.25;;;18.76;100.00
6028;BME280;3042;43.194;27.646;2023-04-21T00:10:03;101100.91;;;18.77;100.00
6028;BME280;3042;43.194;27.646;2023-04-21T00:12:30;101115.13;;;18.43;100.00
6028;BME280;3042;43.194;27.646;2023-04-21T00:14:59;101123.47;;;18.22;100.00
6028;BME280;3042;43.194;27.646;2023-04-21T00:17:26;100777.84;;;16.12;100.00
6028;BME280;3042;43.194;27.646;2023-04-21T00:19:53;101129.97;;;17.99;100.00
6028;BME280;3042;43.194;27.646;2023-04-21T00:22:20;101048.72;;;17.48;100.00
6028;BME280;3042;43.194;27.646;2023-04-21T00:24:48;101108.38;;;18.09;100.00
6028;BME280;3042;43.194;27.646;2023-04-21T00:27:15;101108.53;;;18.18;100.00
6028;BME280;3042;43.194;27.646;2023-04-21T00:29:42;101099.22;;;18.32;100.00
6028;BME280;3042;43.194;27.646;2023-04-21T00:32:11;101091.59;;;18.43;100.00
6028;BME280;3042;43.194;27.646;2023-04-21T00:34:38;101093.44;;;18.50;100.00
6028;BME280;3042;43.194;27.646;2023-04-21T00:37:05;100393.94;;;14.43;100.00
6028;BME280;3042;43.194;27.646;2023-04-21T00:39:32;101094.38;;;18.54;100.00
6028;BME280;3042;43.194;27.646;2023-04-21T00:41:59;100789.00;;;16.87;100.00
6028;BME280;3042;43.194;27.646;2023-04-21T00:44:27;101077.19;;;18.68;100.00
6028;BME280;3042;43.194;27.646;2023-04-21T00:46:54;101072.75;;;18.64;100.00
6028;BME280;3042;43.194;27.646;2023-04-21T00:49:23;101080.66;;;18.67;100.00
6028;BME280;3042;43.194;27.646;2023-04-21T00:51:51;100943.91;;;18.84;100.00
6028;BME280;3042;43.194;27.646;2023-04-21T00:54:19;101072.31;;;19.51;100.00
6028;BME280;3042;43.194;27.646;2023-04-21T00:56:47;101076.84;;;19.63;100.00
6028;BME280;3042;43.194;27.646;2023-04-21T00:59:14;101099.75;;;19.15;100.00
6028;BME280;3042;43.194;27.646;2023-04-21T01:01:41;101018.44;;;19.07;100.00
6028;BME280;3042;43.194;27.646;2023-04-21T01:04:08;101083.38;;;19.30;100.00
6028;BME280;3042;43.194;27.646;2023-04-21T01:06:37;101078.16;;;19.30;100.00
6028;BME280;3042;43.194;27.646;2023-04-21T01:09:05;100696.91;;;16.94;100.00
6028;BME280;3042;43.194;27.646;2023-04-21T01:11:32;101090.66;;;18.91;100.00
6028;BME280;3042;43.194;27.646;2023-04-21T01:13:59;101086.66;;;19.13;100.00
6028;BME280;3042;43.194;27.646;2023-04-21T01:16:26;101083.75;;;18.95;100.00
6028;BME280;3042;43.194;27.646;2023-04-21T01:18:54;101084.53;;;18.91;100.00
6028;BME280;3042;43.194;27.646;2023-04-21T01:21:21;100975.56;;;18.43;100.00
6028;BME280;3042;43.194;27.646;2023-04-21T01:23:50;101060.56;;;19.24;100.00
6028;BME280;3042;43.194;27.646;2023-04-21T01:26:18;101068.50;;;19.27;100.00
6028;BME280;3042;43.194;27.646;2023-04-21T01:28:46;101055.28;;;19.19;100.00
6028;BME280;3042;43.194;27.646;2023-04-21T01:31:13;100993.56;;;18.77;100.00
6028;BME280;3042;43.194;27.646;2023-04-21T01:33:41;101056.13;;;19.17;100.00
6028;BME280;3042;43.194;27.646;2023-04-21T01:36:08;101073.53;;;19.15;100.00
6028;BME280;3042;43.194;27.646;2023-04-21T01:38:37;101036.75;;;19.04;100.00
6028;BME280;3042;43.194;27.646;2023-04-21T01:41:06;101068.34;;;18.63;100.00
6028;BME280;3042;43.194;27.646;2023-04-21T01:43:34;101055.38;;;18.69;100.00
6028;BME280;3042;43.194;27.646;2023-04-21T01:46:02;101052.09;;;18.81;100.00
6028;BME280;3042;43.194;27.646;2023-04-21T01:48:29;101036.41;;;19.45;100.00
6028;BME280;3042;43.194;27.646;2023-04-21T01:50:56;101038.28;;;19.55;100.00
6028;BME280;3042;43.194;27.646;2023-04-21T01:53:23;101031.34;;;19.57;100.00
6028;BME280;3042;43.194;27.646;2023-04-21T01:55:51;101039.13;;;19.51;100.00
6028;BME280;3042;43.194;27.646;2023-04-21T01:58:20;101036.41;;;19.45;100.00
6028;BME280;3042;43.194;27.646;2023-04-21T02:00:47;100886.47;;;18.35;100.00
6028;BME280;3042;43.194;27.646;2023-04-21T02:03:15;101042.31;;;19.27;100.00
6028;BME280;3042;43.194;27.646;2023-04-21T02:05:42;101052.88;;;18.75;100.00
6028;BME280;3042;43.194;27.646;2023-04-21T02:08:09;101042.56;;;18.85;100.00
6028;BME280;3042;43.194;27.646;2023-04-21T02:10:36;101044.19;;;18.76;100.00
6028;BME280;3042;43.194;27.646;2023-04-21T02:13:03;101050.78;;;18.56;100.00
6028;BME280;3042;43.194;27.646;2023-04-21T02:15:32;100849.66;;;18.21;100.00
6028;BME280;3042;43.194;27.646;2023-04-21T02:17:59;101044.22;;;18.80;100.00
6028;BME280;3042;43.194;27.646;2023-04-21T02:20:26;101055.03;;;18.48;100.00
6028;BME280;3042;43.194;27.646;2023-04-21T02:22:53;100611.91;;;15.70;100.00
6028;BME280;3042;43.194;27.646;2023-04-21T02:25:21;101051.72;;;18.60;100.00
6028;BME280;3042;43.194;27.646;2023-04-21T02:27:48;101038.56;;;18.55;100.00
6028;BME280;3042;43.194;27.646;2023-04-21T02:30:15;100841.44;;;17.46;100.00
6028;BME280;3042;43.194;27.646;2023-04-21T02:32:44;100759.69;;;17.02;100.00
6028;BME280;3042;43.194;27.646;2023-04-21T02:35:11;101035.56;;;18.84;100.00
6028;BME280;3042;43.194;27.646;2023-04-21T02:37:38;101030.16;;;18.74;100.00
6028;BME280;3042;43.194;27.646;2023-04-21T02:40:06;101022.75;;;18.49;100.00
6028;BME280;3042;43.194;27.646;2023-04-21T02:42:33;100898.91;;;17.46;100.00
6028;BME280;3042;43.194;27.646;2023-04-21T02:45:01;101043.75;;;18.52;100.00
6028;BME280;3042;43.194;27.646;2023-04-21T02:47:28;101036.88;;;18.57;100.00
6028;BME280;3042;43.194;27.646;2023-04-21T02:49:57;101035.13;;;18.58;100.00
6028;BME280;3042;43.194;27.646;2023-04-21T02:52:24;101041.97;;;18.51;100.00
6028;BME280;3042;43.194;27.646;2023-04-21T02:54:51;101045.41;;;18.47;100.00
6028;BME280;3042;43.194;27.646;2023-04-21T02:57:18;100950.03;;;17.79;100.00
6028;BME280;3042;43.194;27.646;2023-04-21T02:59:45;101046.72;;;18.23;100.00
6028;BME280;3042;43.194;27.646;2023-04-21T03:02:12;101042.78;;;17.97;100.00
6028;BME280;3042;43.194;27.646;2023-04-21T03:04:39;100769.84;;;16.44;100.00
6028;BME280;3042;43.194;27.646;2023-04-21T03:07:12;100820.00;;;16.73;100.00
6028;BME280;3042;43.194;27.646;2023-04-21T03:09:39;100826.09;;;16.74;100.00
6028;BME280;3042;43.194;27.646;2023-04-21T03:12:07;101043.13;;;18.15;100.00
6028;BME280;3042;43.194;27.646;2023-04-21T03:14:34;100986.34;;;17.64;100.00
6028;BME280;3042;43.194;27.646;2023-04-21T03:17:01;101059.97;;;17.85;100.00
6028;BME280;3042;43.194;27.646;2023-04-21T03:19:28;100763.19;;;16.17;100.00
6028;BME280;3042;43.194;27.646;2023-04-21T03:21:55;101027.50;;;18.20;100.00
6028;BME280;3042;43.194;27.646;2023-04-21T03:24:24;100960.88;;;17.52;100.00
6028;BME280;3042;43.194;27.646;2023-04-21T03:26:51;101044.66;;;18.04;100.00
6028;BME280;3042;43.194;27.646;2023-04-21T03:29:19;101041.19;;;18.06;100.00
6028;BME280;3042;43.194;27.646;2023-04-21T03:31:47;101042.03;;;18.04;100.00
6028;BME280;3042;43.194;27.646;2023-04-21T03:34:14;100992.31;;;17.57;100.00
6028;BME280;3042;43.194;27.646;2023-04-21T03:36:41;101044.53;;;17.98;100.00
6028;BME280;3042;43.194;27.646;2023-04-21T03:39:08;101037.59;;;18.00;100.00
6028;BME280;3042;43.194;27.646;2023-04-21T03:41:37;101040.91;;;17.89;100.00
6028;BME280;3042;43.194;27.646;2023-04-21T03:44:04;101034.78;;;17.90;100.00
6028;BME280;3042;43.194;27.646;2023-04-21T03:46:31;101037.59;;;18.00;100.00
6028;BME280;3042;43.194;27.646;2023-04-21T03:48:58;101028.97;;;18.04;100.00
6028;BME280;3042;43.194;27.646;2023-04-21T03:51:26;101035.19;;;18.12;100.00
6028;BME280;3042;43.194;27.646;2023-04-21T03:53:53;100527.47;;;15.21;100.00
6028;BME280;3042;43.194;27.646;2023-04-21T03:56:20;101032.75;;;18.21;100.00
6028;BME280;3042;43.194;27.646;2023-04-21T03:58:48;101031.03;;;18.23;100.00
6028;BME280;3042;43.194;27.646;2023-04-21T04:01:16;101031.28;;;18.35;100.00
6028;BME280;3042;43.194;27.646;2023-04-21T04:03:43;100947.03;;;18.03;100.00
6028;BME280;3042;43.194;27.646;2023-04-21T04:06:10;100936.38;;;17.92;100.00
6028;BME280;3042;43.194;27.646;2023-04-21T04:08:37;100972.75;;;18.30;100.00
6028;BME280;3042;43.194;27.646;2023-04-21T04:11:06;101032.63;;;18.65;100.00
6028;BME280;3042;43.194;27.646;2023-04-21T04:13:37;101032.78;;;18.76;100.00
6028;BME280;3042;43.194;27.646;2023-04-21T04:16:06;101046.06;;;18.87;100.00
6028;BME280;3042;43.194;27.646;2023-04-21T04:18:35;101037.38;;;18.88;100.00
6028;BME280;3042;43.194;27.646;2023-04-21T04:21:05;100856.88;;;17.81;100.00
6028;BME280;3042;43.194;27.646;2023-04-21T04:23:33;100931.72;;;18.26;100.00
6028;BME280;3042;43.194;27.646;2023-04-21T04:26:00;101037.56;;;19.03;100.00
6028;BME280;3042;43.194;27.646;2023-04-21T04:28:30;101042.91;;;19.09;100.00
6028;BME280;3042;43.194;27.646;2023-04-21T04:30:57;101043.84;;;19.13;100.00
6028;BME280;3042;43.194;27.646;2023-04-21T04:33:26;100968.16;;;18.72;100.00
6028;BME280;3042;43.194;27.646;2023-04-21T04:35:53;101056.88;;;19.10;100.00
6028;BME280;3042;43.194;27.646;2023-04-21T04:38:21;101055.09;;;19.07;100.00
6028;BME280;3042;43.194;27.646;2023-04-21T04:40:52;101045.13;;;18.82;100.00
6028;BME280;3042;43.194;27.646;2023-04-21T04:43:20;101090.91;;;18.55;100.00
6028;BME280;3042;43.194;27.646;2023-04-21T04:45:47;101086.25;;;18.39;100.00
6028;BME280;3042;43.194;27.646;2023-04-21T04:48:14;101089.53;;;18.28;100.00
6028;BME280;3042;43.194;27.646;2023-04-21T04:50:43;101090.84;;;18.05;100.00
6028;BME280;3042;43.194;27.646;2023-04-21T04:53:10;101089.44;;;17.78;100.00
6028;BME280;3042;43.194;27.646;2023-04-21T04:55:37;101092.41;;;17.93;100.00
6028;BME280;3042;43.194;27.646;2023-04-21T04:58:04;101045.16;;;17.86;100.00
6028;BME280;3042;43.194;27.646;2023-04-21T05:00:31;101081.31;;;18.07;100.00
6028;BME280;3042;43.194;27.646;2023-04-21T05:02:58;101090.00;;;18.06;100.00
6028;BME280;3042;43.194;27.646;2023-04-21T05:05:26;101080.47;;;18.09;100.00
6028;BME280;3042;43.194;27.646;2023-04-21T05:07:55;101037.38;;;17.87;100.00
6028;BME280;3042;43.194;27.646;2023-04-21T05:10:22;101084.97;;;18.15;100.00
6028;BME280;3042;43.194;27.646;2023-04-21T05:12:50;101089.31;;;18.14;100.00
6028;BME280;3042;43.194;27.646;2023-04-21T05:15:17;100983.31;;;17.44;100.00
6028;BME280;3042;43.194;27.646;2023-04-21T05:17:44;101015.38;;;17.78;100.00
6028;BME280;3042;43.194;27.646;2023-04-21T05:20:11;101080.00;;;18.30;100.00
6028;BME280;3042;43.194;27.646;2023-04-21T05:22:39;101087.81;;;18.27;100.00
6028;BME280;3042;43.194;27.646;2023-04-21T05:25:09;101074.81;;;18.32;100.00
6028;BME280;3042;43.194;27.646;2023-04-21T05:27:39;101088.06;;;17.96;100.00
6028;BME280;3042;43.194;27.646;2023-04-21T05:30:07;101080.38;;;18.05;100.00
6028;BME280;3042;43.194;27.646;2023-04-21T05:32:35;101071.31;;;18.31;100.00
6028;BME280;3042;43.194;27.646;2023-04-21T05:35:03;101026.38;;;18.05;100.00
6028;BME280;3042;43.194;27.646;2023-04-21T05:37:30;101068.03;;;18.45;100.00
6028;BME280;3042;43.194;27.646;2023-04-21T05:39:57;100944.78;;;17.79;100.00
6028;BME280;3042;43.194;27.646;2023-04-21T05:42:44;101054.66;;;18.76;100.00
6028;BME280;3042;43.194;27.646;2023-04-21T05:45:12;101037.69;;;19.09;100.00
6028;BME280;3042;43.194;27.646;2023-04-21T05:47:39;101034.69;;;19.47;100.00
6028;BME280;3042;43.194;27.646;2023-04-21T05:50:07;100978.75;;;19.45;100.00
6028;BME280;3042;43.194;27.646;2023-04-21T05:52:35;101049.47;;;20.14;100.00
6028;BME280;3042;43.194;27.646;2023-04-21T05:55:03;101036.06;;;20.82;100.00
6028;BME280;3042;43.194;27.646;2023-04-21T05:57:30;101017.97;;;21.35;100.00
6028;BME280;3042;43.194;27.646;2023-04-21T05:59:59;100922.38;;;21.11;100.00
6028;BME280;3042;43.194;27.646;2023-04-21T06:02:26;101013.81;;;22.07;100.00
6028;BME280;3042;43.194;27.646;2023-04-21T06:04:53;100905.00;;;21.50;100.00
6028;BME280;3042;43.194;27.646;2023-04-21T06:07:20;101015.66;;;22.27;100.00
6028;BME280;3042;43.194;27.646;2023-04-21T06:09:49;101022.66;;;22.28;100.00
6028;BME280;3042;43.194;27.646;2023-04-21T06:12:16;101034.00;;;22.14;100.00
6028;BME280;3042;43.194;27.646;2023-04-21T06:14:44;101036.66;;;22.14;100.00
6028;BME280;3042;43.194;27.646;2023-04-21T06:17:15;101039.28;;;22.10;100.00
6028;BME280;3042;43.194;27.646;2023-04-21T06:19:42;100940.03;;;21.40;100.00
6028;BME280;3042;43.194;27.646;2023-04-21T06:22:09;101069.94;;;21.88;100.00
6028;BME280;3042;43.194;27.646;2023-04-21T06:24:40;100813.28;;;20.05;100.00
6028;BME280;3042;43.194;27.646;2023-04-21T06:27:10;101050.25;;;21.06;100.00
6028;BME280;3042;43.194;27.646;2023-04-21T06:29:38;101121.19;;;21.06;100.00
6028;BME280;3042;43.194;27.646;2023-04-21T06:32:07;101137.59;;;20.77;100.00
6028;BME280;3042;43.194;27.646;2023-04-21T06:34:36;101059.53;;;19.74;100.00
6028;BME280;3042;43.194;27.646;2023-04-21T06:37:03;101022.69;;;18.43;100.00
6028;BME280;3042;43.194;27.646;2023-04-21T06:39:30;101180.00;;;18.61;100.00
6028;BME280;3042;43.194;27.646;2023-04-21T06:41:58;101047.38;;;17.66;100.00
6028;BME280;3042;43.194;27.646;2023-04-21T06:44:25;101168.84;;;18.24;100.00
6028;BME280;3042;43.194;27.646;2023-04-21T06:46:53;101169.09;;;17.94;100.00
6028;BME280;3042;43.194;27.646;2023-04-21T06:49:20;101157.97;;;18.03;100.00
6028;BME280;3042;43.194;27.646;2023-04-21T06:51:49;101173.31;;;17.87;100.00
6028;BME280;3042;43.194;27.646;2023-04-21T06:54:19;100971.13;;;17.00;100.00
6028;BME280;3042;43.194;27.646;2023-04-21T06:56:47;101099.97;;;17.81;100.00
6028;BME280;3042;43.194;27.646;2023-04-21T06:59:16;101163.72;;;18.30;100.00
6028;BME280;3042;43.194;27.646;2023-04-21T07:01:43;101181.78;;;18.18;100.00
6028;BME280;3042;43.194;27.646;2023-04-21T07:04:13;101196.47;;;18.10;100.00
6028;BME280;3042;43.194;27.646;2023-04-21T07:06:43;101193.84;;;18.10;100.00
6028;BME280;3042;43.194;27.646;2023-04-21T07:09:12;101188.06;;;18.26;100.00
6028;BME280;3042;43.194;27.646;2023-04-21T07:11:40;101143.00;;;17.97;100.00
6028;BME280;3042;43.194;27.646;2023-04-21T07:14:07;101170.63;;;18.74;100.00
6028;BME280;3042;43.194;27.646;2023-04-21T07:16:34;101176.75;;;18.74;100.00
6028;BME280;3042;43.194;27.646;2023-04-21T07:19:02;101171.66;;;18.81;100.00
6028;BME280;3042;43.194;27.646;2023-04-21T07:21:29;101157.97;;;18.97;100.00
6028;BME280;3042;43.194;27.646;2023-04-21T07:24:01;101162.25;;;18.92;100.00
6028;BME280;3042;43.194;27.646;2023-04-21T07:26:31;101162.31;;;18.95;100.00
6028;BME280;3042;43.194;27.646;2023-04-21T07:29:02;101047.75;;;18.31;100.00
6028;BME280;3042;43.194;27.646;2023-04-21T07:31:29;101153.69;;;19.02;100.00
6028;BME280;3042;43.194;27.646;2023-04-21T07:33:56;101153.97;;;19.19;100.00
6028;BME280;3042;43.194;27.646;2023-04-21T07:36:24;101106.75;;;19.16;100.00
6028;BME280;3042;43.194;27.646;2023-04-21T07:38:53;101132.56;;;19.49;100.00
6028;BME280;3042;43.194;27.646;2023-04-21T07:41:21;101132.72;;;19.61;100.00
6028;BME280;3042;43.194;27.646;2023-04-21T07:43:50;101145.91;;;19.66;100.00
6028;BME280;3042;43.194;27.646;2023-04-21T07:46:17;101134.50;;;19.63;100.00
6028;BME280;3042;43.194;27.646;2023-04-21T07:48:46;101121.72;;;19.86;100.00
6028;BME280;3042;43.194;27.646;2023-04-21T07:54:19;101121.94;;;20.04;100.00
6028;BME280;3042;43.194;27.646;2023-04-21T07:56:46;101117.69;;;20.14;100.00
6028;BME280;3042;43.194;27.646;2023-04-21T07:59:15;101012.75;;;19.40;100.00
6028;BME280;3042;43.194;27.646;2023-04-21T08:01:42;101154.72;;;19.68;100.00
6028;BME280;3042;43.194;27.646;2023-04-21T08:04:09;101163.44;;;19.69;100.00
6028;BME280;3042;43.194;27.646;2023-04-21T08:06:36;101151.59;;;19.98;100.00
6028;BME280;3042;43.194;27.646;2023-04-21T08:09:04;101154.81;;;19.74;100.00
6028;BME280;3042;43.194;27.646;2023-04-21T08:11:31;100739.88;;;17.12;100.00
6028;BME280;3042;43.194;27.646;2023-04-21T08:13:59;101141.00;;;19.89;100.00
6028;BME280;3042;43.194;27.646;2023-04-21T08:16:29;101127.16;;;20.04;100.00
6028;BME280;3042;43.194;27.646;2023-04-21T08:18:56;101120.47;;;20.28;100.00
6028;BME280;3042;43.194;27.646;2023-04-21T08:21:23;101118.41;;;20.84;100.00
6028;BME280;3042;43.194;27.646;2023-04-21T08:23:50;101115.09;;;21.10;100.00
6028;BME280;3042;43.194;27.646;2023-04-21T08:26:20;101107.38;;;21.39;100.00
6028;BME280;3042;43.194;27.646;2023-04-21T08:28:48;101108.34;;;21.46;100.00
6028;BME280;3042;43.194;27.646;2023-04-21T08:31:16;101103.13;;;21.58;100.00
6028;BME280;3042;43.194;27.646;2023-04-21T08:33:46;101101.47;;;21.82;100.00
6028;BME280;3042;43.194;27.646;2023-04-21T08:36:13;101103.28;;;21.95;100.00
6028;BME280;3042;43.194;27.646;2023-04-21T08:38:41;101035.63;;;21.56;100.00
6028;BME280;3042;43.194;27.646;2023-04-21T08:41:08;101108.53;;;21.98;100.00
6028;BME280;3042;43.194;27.646;2023-04-21T08:43:36;100892.44;;;20.75;100.00
6028;BME280;3042;43.194;27.646;2023-04-21T08:46:06;101095.28;;;21.69;100.00
6028;BME280;3042;43.194;27.646;2023-04-21T08:48:37;101112.06;;;21.94;100.00
6028;BME280;3042;43.194;27.646;2023-04-21T08:51:08;101105.06;;;21.96;100.00
6028;BME280;3042;43.194;27.646;2023-04-21T08:53:36;101041.78;;;21.59;100.00
6028;BME280;3042;43.194;27.646;2023-04-21T08:56:03;101128.56;;;21.59;100.00
6028;BME280;3042;43.194;27.646;2023-04-21T08:58:31;101122.47;;;21.73;100.00
6028;BME280;3042;43.194;27.646;2023-04-21T09:00:58;100938.00;;;20.80;100.00
6028;BME280;3042;43.194;27.646;2023-04-21T09:03:28;101068.09;;;21.62;100.00
6028;BME280;3042;43.194;27.646;2023-04-21T09:05:57;101117.31;;;21.94;100.00
6028;BME280;3042;43.194;27.646;2023-04-21T09:08:28;101120.06;;;22.23;100.00
6028;BME280;3042;43.194;27.646;2023-04-21T09:10:56;101104.22;;;22.17;100.00
6028;BME280;3042;43.194;27.646;2023-04-21T09:13:29;101101.63;;;22.26;100.00
6028;BME280;3042;43.194;27.646;2023-04-21T09:15:56;101085.84;;;22.40;100.00
6028;BME280;3042;43.194;27.646;2023-04-21T09:18:26;101086.75;;;22.50;100.00
6028;BME280;3042;43.194;27.646;2023-04-21T09:21:05;100658.13;;;19.45;100.00
6028;BME280;3042;43.194;27.646;2023-04-21T09:23:40;101092.88;;;22.40;100.00
6028;BME280;3042;43.194;27.646;2023-04-21T09:26:07;101105.16;;;22.21;100.00
6028;BME280;3042;43.194;27.646;2023-04-21T09:28:35;101070.06;;;22.89;100.00
6028;BME280;3042;43.194;27.646;2023-04-21T09:31:02;101077.97;;;22.75;100.00
6028;BME280;3042;43.194;27.646;2023-04-21T09:33:32;101087.63;;;22.53;100.00
6028;BME280;3042;43.194;27.646;2023-04-21T09:36:01;101053.31;;;23.30;100.00
6028;BME280;3042;43.194;27.646;2023-04-21T09:38:29;101054.19;;;23.29;100.00
6028;BME280;3042;43.194;27.646;2023-04-21T09:40:58;100945.31;;;22.95;100.00
6028;BME280;3042;43.194;27.646;2023-04-21T09:43:25;101050.59;;;23.56;100.00
6028;BME280;3042;43.194;27.646;2023-04-21T09:45:53;101026.13;;;23.10;100.00
6028;BME280;3042;43.194;27.646;2023-04-21T09:48:23;101063.03;;;23.21;100.00
6028;BME280;3042;43.194;27.646;2023-04-21T09:50:54;101061.25;;;23.21;100.00
6028;BME280;3042;43.194;27.646;2023-04-21T09:53:23;100795.41;;;21.98;100.00
6028;BME280;3042;43.194;27.646;2023-04-21T09:55:57;101058.53;;;23.43;98.84
6028;BME280;3042;43.194;27.646;2023-04-21T09:58:31;101055.91;;;23.43;97.86
6028;BME280;3042;43.194;27.646;2023-04-21T10:01:07;100880.31;;;22.89;95.63
6028;BME280;3042;43.194;27.646;2023-04-21T10:03:37;101015.97;;;24.16;92.09
6028;BME280;3042;43.194;27.646;2023-04-21T10:06:13;101006.16;;;24.28;91.48
6028;BME280;3042;43.194;27.646;2023-04-21T10:08:42;101020.41;;;24.08;89.34
6028;BME280;3042;43.194;27.646;2023-04-21T10:11:12;101016.88;;;24.12;86.65
6028;BME280;3042;43.194;27.646;2023-04-21T10:13:40;100999.03;;;24.42;88.21
6028;BME280;3042;43.194;27.646;2023-04-21T10:16:09;100987.44;;;24.60;87.24
6028;BME280;3042;43.194;27.646;2023-04-21T10:18:37;100798.59;;;22.95;83.39
6028;BME280;3042;43.194;27.646;2023-04-21T10:21:06;100900.25;;;23.46;82.17
6028;BME280;3042;43.194;27.646;2023-04-21T10:23:38;100957.84;;;24.18;82.84
6028;BME280;3042;43.194;27.646;2023-04-21T10:26:11;101007.91;;;24.32;83.13
6028;BME280;3042;43.194;27.646;2023-04-21T10:31:30;100973.44;;;24.46;81.86
6028;BME280;3042;43.194;27.646;2023-04-21T10:34:19;101016.00;;;24.10;79.67
6028;BME280;3042;43.194;27.646;2023-04-21T10:37:09;101030.22;;;23.88;78.42
6028;BME280;3042;43.194;27.646;2023-04-21T10:39:43;101062.97;;;23.37;82.11
6028;BME280;3042;43.194;27.646;2023-04-21T10:42:28;101057.69;;;23.33;80.91
6028;BME280;3042;43.194;27.646;2023-04-21T10:45:06;101038.16;;;23.85;81.75
6028;BME280;3042;43.194;27.646;2023-04-21T10:47:43;100962.84;;;23.16;81.34
6028;BME280;3042;43.194;27.646;2023-04-21T10:50:16;101010.09;;;23.62;80.01
6028;BME280;3042;43.194;27.646;2023-04-21T10:52:45;101036.44;;;23.71;80.97
6028;BME280;3042;43.194;27.646;2023-04-21T10:55:12;101001.50;;;23.23;79.26
6028;BME280;3042;43.194;27.646;2023-04-21T10:57:44;101039.94;;;23.79;79.62
6028;BME280;3042;43.194;27.646;2023-04-21T11:00:16;101028.38;;;23.99;79.31
6028;BME280;3042;43.194;27.646;2023-04-21T11:02:52;101003.84;;;23.85;79.83
6028;BME280;3042;43.194;27.646;2023-04-21T11:05:26;100795.25;;;22.64;81.82
6028;BME280;3042;43.194;27.646;2023-04-21T11:08:05;100993.38;;;23.66;80.10
6028;BME280;3042;43.194;27.646;2023-04-21T11:10:50;101062.94;;;23.45;78.54
6028;BME280;3042;43.194;27.646;2023-04-21T11:13:21;101039.84;;;23.95;79.90
6028;BME280;3042;43.194;27.646;2023-04-21T11:16:03;101064.63;;;23.57;77.96
6028;BME280;3042;43.194;27.646;2023-04-21T11:18:39;101072.59;;;23.45;78.32
6028;BME280;3042;43.194;27.646;2023-04-21T11:21:11;101077.03;;;23.33;78.70
6028;BME280;3042;43.194;27.646;2023-04-21T11:23:55;100970.72;;;23.25;79.62
6028;BME280;3042;43.194;27.646;2023-04-21T11:26:30;101076.97;;;23.52;78.91
6028;BME280;3042;43.194;27.646;2023-04-21T11:29:04;101066.41;;;23.55;78.18
6028;BME280;3042;43.194;27.646;2023-04-21T11:31:32;101076.13;;;23.41;78.92
6028;BME280;3042;43.194;27.646;2023-04-21T11:34:00;101113.13;;;22.94;78.34
6028;BME280;3042;43.194;27.646;2023-04-21T11:36:31;101099.94;;;22.82;76.89
6028;BME280;3042;43.194;27.646;2023-04-21T11:38:59;100919.91;;;21.49;76.01
6028;BME280;3042;43.194;27.646;2023-04-21T11:41:32;101015.47;;;21.58;77.58
6028;BME280;3042;43.194;27.646;2023-04-21T11:44:01;101066.44;;;21.98;77.13
6028;BME280;3042;43.194;27.646;2023-04-21T11:46:29;100936.63;;;21.84;77.97
6028;BME280;3042;43.194;27.646;2023-04-21T11:48:59;101026.06;;;21.76;78.11
6028;BME280;3042;43.194;27.646;2023-04-21T11:51:31;101128.88;;;22.36;78.24
6028;BME280;3042;43.194;27.646;2023-04-21T11:53:59;101125.34;;;22.40;78.81
6028;BME280;3042;43.194;27.646;2023-04-21T11:56:26;101121.00;;;22.58;80.33
6028;BME280;3042;43.194;27.646;2023-04-21T11:58:54;100925.84;;;21.07;79.40
6028;BME280;3042;43.194;27.646;2023-04-21T12:01:22;101120.97;;;22.31;79.77
6028;BME280;3042;43.194;27.646;2023-04-21T12:03:54;101148.91;;;21.97;79.92
6028;BME280;3042;43.194;27.646;2023-04-21T12:06:22;101148.16;;;22.23;81.03
6028;BME280;3042;43.194;27.646;2023-04-21T12:08:54;101148.94;;;22.02;81.72
6028;BME280;3042;43.194;27.646;2023-04-21T12:11:26;101156.81;;;22.00;83.51
6028;BME280;3042;43.194;27.646;2023-04-21T12:13:55;100797.53;;;20.05;83.00
6028;BME280;3042;43.194;27.646;2023-04-21T12:16:23;100774.88;;;20.25;83.21
6028;BME280;3042;43.194;27.646;2023-04-21T12:18:55;101105.19;;;22.61;83.65
6028;BME280;3042;43.194;27.646;2023-04-21T12:21:26;101107.84;;;22.70;82.93
6028;BME280;3042;43.194;27.646;2023-04-21T12:23:54;101051.63;;;22.37;83.31
6028;BME280;3042;43.194;27.646;2023-04-21T12:26:21;101102.59;;;22.67;85.58
6028;BME280;3042;43.194;27.646;2023-04-21T12:28:49;101055.13;;;22.50;84.04
6028;BME280;3042;43.194;27.646;2023-04-21T12:31:17;101101.69;;;22.66;79.21
6028;BME280;3042;43.194;27.646;2023-04-21T12:33:44;100952.44;;;21.99;77.75
6028;BME280;3042;43.194;27.646;2023-04-21T12:36:15;101044.59;;;22.21;77.19
6028;BME280;3042;43.194;27.646;2023-04-21T12:38:42;101106.94;;;22.51;78.18
6028;BME280;3042;43.194;27.646;2023-04-21T12:41:10;101069.19;;;22.47;77.16
6028;BME280;3042;43.194;27.646;2023-04-21T12:43:37;101078.88;;;23.01;77.40
6028;BME280;3042;43.194;27.646;2023-04-21T12:46:04;101009.50;;;22.43;75.37
6028;BME280;3042;43.194;27.646;2023-04-21T12:48:31;101095.56;;;22.69;75.03
6028;BME280;3042;43.194;27.646;2023-04-21T12:50:59;101085.88;;;22.86;75.46
6028;BME280;3042;43.194;27.646;2023-04-21T12:53:27;101078.84;;;22.97;75.58
6028;BME280;3042;43.194;27.646;2023-04-21T12:55:55;100826.13;;;21.71;74.99
6028;BME280;3042;43.194;27.646;2023-04-21T12:58:22;101085.91;;;23.05;75.04
6028;BME280;3042;43.194;27.646;2023-04-21T13:00:49;101075.34;;;23.14;75.29
6028;BME280;3042;43.194;27.646;2023-04-21T13:03:16;101065.66;;;23.13;75.57
6028;BME280;3042;43.194;27.646;2023-04-21T13:05:43;101079.72;;;22.89;74.77